createdAt,value
2018-11-21T00:00:47.470Z,12.20
2018-11-21T00:03:16.661Z,12.87
2018-11-21T00:05:45.856Z,12.50
2018-11-21T00:08:15.037Z,12.67
2018-11-21T00:10:44.180Z,12.13
2018-11-21T00:13:13.368Z,12.47
2018-11-21T00:15:42.601Z,12.17
2018-11-21T00:18:11.850Z,13.60
2018-11-21T00:20:41.029Z,13.07
2018-11-21T00:23:10.629Z,12.23
2018-11-21T00:25:40.181Z,12.53
2018-11-21T00:28:09.331Z,13.40
2018-11-21T00:30:38.640Z,12.63
2018-11-21T00:33:07.810Z,12.70
2018-11-21T00:35:36.982Z,11.60
2018-11-21T00:38:06.137Z,12.40
2018-11-21T00:40:35.767Z,11.90
2018-11-21T00:43:05.210Z,12.87
2018-11-21T00:45:34.448Z,12.43
2018-11-21T00:48:03.731Z,12.03
2018-11-21T00:50:32.917Z,12.93
2018-11-21T00:53:02.090Z,12.83
2018-11-21T00:55:31.364Z,12.60
2018-11-21T00:58:00.544Z,12.67
2018-11-21T01:00:29.787Z,12.33
2018-11-21T01:02:59.354Z,13.07
2018-11-21T01:05:28.509Z,11.63
2018-11-21T01:07:57.689Z,12.67
2018-11-21T01:10:26.904Z,12.70
2018-11-21T01:12:56.114Z,12.30
2018-11-21T01:15:25.251Z,12.13
2018-11-21T01:17:54.469Z,13.43
2018-11-21T01:20:23.614Z,11.80
2018-11-21T01:22:52.828Z,12.33
2018-11-21T01:25:22.112Z,12.77
2018-11-21T01:27:51.264Z,13.43
2018-11-21T01:30:20.515Z,11.57
2018-11-21T01:32:49.687Z,12.33
2018-11-21T01:35:18.846Z,12.77
2018-11-21T01:37:48.424Z,11.77
2018-11-21T01:40:17.588Z,12.60
2018-11-21T01:42:46.786Z,12.93
2018-11-21T01:45:16.354Z,12.43
2018-11-21T01:47:45.514Z,12.30
2018-11-21T01:50:14.712Z,13.47
2018-11-21T01:52:43.892Z,12.47
2018-11-21T01:55:13.055Z,13.27
2018-11-21T01:57:42.264Z,12.93
2018-11-21T02:00:12.229Z,13.37
2018-11-21T02:02:41.392Z,13.10
2018-11-21T02:05:10.583Z,13.90
2018-11-21T02:07:39.741Z,12.03
2018-11-21T02:10:08.956Z,13.20
2018-11-21T02:12:38.106Z,12.13
2018-11-21T02:15:07.353Z,12.83
2018-11-21T02:17:36.565Z,12.13
2018-11-21T02:20:07.430Z,14.33
2018-11-21T02:22:36.658Z,12.53
2018-11-21T02:25:07.069Z,13.17
2018-11-21T02:27:36.291Z,12.80
2018-11-21T02:30:06.570Z,14.53
2018-11-21T02:32:35.719Z,12.97
2018-11-21T02:35:05.888Z,12.20
2018-11-21T02:37:35.216Z,12.90
2018-11-21T02:40:04.479Z,11.90
2018-11-21T02:42:33.656Z,13.17
2018-11-21T02:45:02.846Z,12.47
2018-11-21T02:47:32.107Z,13.90
2018-11-21T02:50:01.292Z,12.50
2018-11-21T02:52:30.539Z,13.20
2018-11-21T02:55:00.116Z,13.33
2018-11-21T02:57:30.510Z,14.27
2018-11-21T03:00:08.224Z,13.27
2018-11-21T03:02:37.389Z,12.03
2018-11-21T03:05:06.753Z,13.53
2018-11-21T03:07:35.953Z,13.57
2018-11-21T03:10:06.435Z,13.27
2018-11-21T03:12:36.215Z,12.60
2018-11-21T03:15:05.937Z,13.10
2018-11-21T03:17:35.409Z,13.50
2018-11-21T03:20:04.242Z,14.60
2018-11-21T03:22:33.696Z,13.57
2018-11-21T03:25:02.881Z,13.93
2018-11-21T03:27:32.243Z,14.37
2018-11-21T03:30:01.541Z,13.63
2018-11-21T03:32:30.689Z,13.70
2018-11-21T03:34:59.838Z,14.67
2018-11-21T03:37:29.104Z,14.13
2018-11-21T03:39:59.056Z,14.83
2018-11-21T03:42:28.206Z,13.70
2018-11-21T03:44:57.697Z,14.20
2018-11-21T03:47:26.961Z,13.97
2018-11-21T03:49:56.113Z,12.53
2018-11-21T03:52:25.319Z,14.20
2018-11-21T03:54:54.482Z,14.50
2018-11-21T03:57:23.677Z,15.30
2018-11-21T03:59:52.849Z,14.37
2018-11-21T04:02:22.121Z,14.97
2018-11-21T04:04:51.277Z,14.60
2018-11-21T04:07:21.224Z,15.43
2018-11-21T04:09:50.372Z,13.50
2018-11-21T04:12:19.533Z,13.93
2018-11-21T04:14:48.738Z,14.00
2018-11-21T04:17:17.940Z,15.50
2018-11-21T04:19:47.136Z,14.20
2018-11-21T04:22:16.322Z,13.63
2018-11-21T04:24:45.547Z,14.47
2018-11-21T04:27:14.755Z,15.60
2018-11-21T04:29:44.355Z,15.67
2018-11-21T04:32:13.528Z,14.20
2018-11-21T04:34:42.689Z,14.33
2018-11-21T04:37:11.872Z,14.43
2018-11-21T04:39:41.112Z,14.97
2018-11-21T04:42:10.344Z,14.83
2018-11-21T04:44:39.920Z,14.50
2018-11-21T04:47:09.109Z,15.97
2018-11-21T04:49:38.252Z,14.23
2018-11-21T04:52:07.414Z,15.10
2018-11-21T04:54:36.566Z,15.10
2018-11-21T04:57:06.056Z,14.40
2018-11-21T04:59:35.245Z,15.67
2018-11-21T05:02:04.501Z,14.77
2018-11-21T05:04:33.745Z,15.40
2018-11-21T05:07:02.954Z,14.83
2018-11-21T05:09:32.148Z,14.60
2018-11-21T05:12:01.315Z,14.83
2018-11-21T05:14:30.897Z,15.23
2018-11-21T05:17:00.071Z,16.00
2018-11-21T05:19:29.364Z,14.20
2018-11-21T05:21:58.575Z,15.60
2018-11-21T05:24:27.748Z,14.73
2018-11-21T05:26:56.909Z,13.83
2018-11-21T05:29:26.069Z,14.23
2018-11-21T05:31:55.737Z,15.17
2018-11-21T05:34:24.907Z,14.93
2018-11-21T05:36:53.732Z,15.20
2018-11-21T05:39:22.833Z,15.10
2018-11-21T05:41:52.036Z,14.23
2018-11-21T05:44:21.277Z,15.43
2018-11-21T05:46:53.688Z,14.50
2018-11-21T05:49:19.756Z,15.17
2018-11-21T05:51:48.953Z,15.40
2018-11-21T05:54:18.145Z,14.40
2018-11-21T05:56:47.356Z,15.07
2018-11-21T05:59:16.685Z,15.63
2018-11-21T06:01:46.202Z,14.60
2018-11-21T06:04:15.420Z,13.97
2018-11-21T06:06:44.583Z,14.67
2018-11-21T06:09:13.939Z,14.07
2018-11-21T06:11:43.263Z,15.23
2018-11-21T06:14:12.492Z,13.83
2018-11-21T06:16:41.642Z,13.90
2018-11-21T06:19:10.839Z,14.53
2018-11-21T06:21:40.097Z,15.07
2018-11-21T06:24:09.022Z,13.93
2018-11-21T06:26:38.340Z,15.17
2018-11-21T06:29:07.528Z,13.60
2018-11-21T06:31:36.711Z,14.40
2018-11-21T06:34:05.937Z,14.70
2018-11-21T06:36:35.121Z,14.07
2018-11-21T06:39:05.828Z,14.57
2018-11-21T06:41:35.025Z,15.17
2018-11-21T06:44:04.209Z,14.87
2018-11-21T06:46:33.387Z,13.13
2018-11-21T06:49:02.576Z,14.03
2018-11-21T06:51:35.194Z,14.47
2018-11-21T06:54:00.910Z,14.00
2018-11-21T06:56:30.369Z,13.10
2018-11-21T06:58:59.581Z,13.43
2018-11-21T07:01:28.768Z,13.17
2018-11-21T07:03:57.949Z,13.60
2018-11-21T07:06:27.186Z,14.13
2018-11-21T07:08:56.358Z,15.37
2018-11-21T07:11:25.571Z,13.70
2018-11-21T07:13:54.949Z,14.23
2018-11-21T07:16:24.359Z,13.37
2018-11-21T07:18:53.591Z,13.90
2018-11-21T07:21:22.753Z,12.63
2018-11-21T07:23:51.930Z,14.30
2018-11-21T07:26:21.140Z,12.30
2018-11-21T07:28:50.312Z,12.87
2018-11-21T07:31:19.477Z,12.20
2018-11-21T07:33:48.675Z,13.50
2018-11-21T07:36:17.825Z,13.30
2018-11-21T07:38:47.033Z,12.60
2018-11-21T07:41:16.217Z,13.07
2018-11-21T07:43:45.398Z,13.20
2018-11-21T07:46:14.841Z,13.47
2018-11-21T07:48:44.003Z,12.83
2018-11-21T07:51:13.168Z,13.07
2018-11-21T07:53:42.417Z,12.87
2018-11-21T07:57:03.064Z,13.03
2018-11-21T07:59:32.638Z,12.87
2018-11-21T08:02:08.284Z,12.23
2018-11-21T08:04:53.183Z,12.43
2018-11-21T08:07:44.513Z,11.80
2018-11-21T08:10:31.384Z,13.33
2018-11-21T08:13:18.878Z,12.90
2018-11-21T08:16:05.561Z,12.47
2018-11-21T08:18:52.660Z,13.07
2018-11-21T08:21:39.739Z,13.10
2018-11-21T08:24:20.464Z,12.57
2018-11-21T08:27:07.701Z,13.00
2018-11-21T08:29:36.890Z,12.30
2018-11-21T08:32:06.094Z,12.43
2018-11-21T08:34:35.280Z,12.13
2018-11-21T08:37:04.461Z,12.83
2018-11-21T08:39:33.653Z,13.07
2018-11-21T08:42:02.815Z,13.33
2018-11-21T08:44:31.985Z,12.17
2018-11-21T08:47:01.162Z,12.37
2018-11-21T08:49:30.000Z,11.87
2018-11-21T08:51:59.134Z,12.93
2018-11-21T08:54:28.296Z,13.43
2018-11-21T08:56:57.463Z,12.03
2018-11-21T08:59:26.637Z,13.43
2018-11-21T09:01:55.798Z,13.60
2018-11-21T09:04:25.019Z,12.70
2018-11-21T09:06:54.191Z,12.00
2018-11-21T09:09:23.398Z,12.73
2018-11-21T09:11:52.598Z,12.10
2018-11-21T09:14:21.764Z,12.23
2018-11-21T09:16:50.944Z,12.40
2018-11-21T09:19:20.127Z,13.07
2018-11-21T09:21:49.412Z,13.87
2018-11-21T09:24:18.613Z,12.23
2018-11-21T09:26:47.775Z,11.87
2018-11-21T09:29:16.965Z,12.20
2018-11-21T09:31:46.185Z,12.57
2018-11-21T09:34:15.382Z,12.33
2018-11-21T09:36:44.550Z,13.37
2018-11-21T09:39:13.858Z,13.07
2018-11-21T09:41:42.943Z,12.23
2018-11-21T09:44:12.137Z,12.73
2018-11-21T09:46:41.294Z,11.83
2018-11-21T09:49:10.523Z,13.10
2018-11-21T09:51:39.725Z,12.93
2018-11-21T09:54:08.924Z,13.07
2018-11-21T09:56:38.116Z,13.10
2018-11-21T09:59:07.318Z,12.80
2018-11-21T10:02:13.398Z,11.47
2018-11-21T10:04:42.591Z,12.70
2018-11-21T10:07:12.152Z,11.73
2018-11-21T10:09:43.781Z,12.30
2018-11-21T10:12:12.973Z,11.57
2018-11-21T10:14:42.165Z,10.93
2018-11-21T10:17:11.413Z,10.43
2018-11-21T10:19:40.558Z,10.67
2018-11-21T10:22:09.723Z,10.50
2018-11-21T10:24:38.977Z,11.97
2018-11-21T10:27:08.164Z,12.00
2018-11-21T10:29:37.317Z,11.80
2018-11-21T10:32:06.488Z,11.33
2018-11-21T10:34:35.311Z,12.93
2018-11-21T10:37:04.425Z,13.37
2018-11-21T10:39:33.612Z,12.63
2018-11-21T10:42:02.779Z,11.93
2018-11-21T10:44:31.630Z,11.50
2018-11-21T10:47:00.719Z,12.37
2018-11-21T10:49:29.892Z,11.17
2018-11-21T10:51:59.088Z,13.00
2018-11-21T10:54:28.285Z,12.07
2018-11-21T10:56:57.987Z,12.93
2018-11-21T10:59:27.185Z,12.90
2018-11-21T11:02:14.256Z,13.90
2018-11-21T11:05:01.358Z,13.53
2018-11-21T11:07:49.259Z,13.60
2018-11-21T11:10:37.570Z,14.23
2018-11-21T11:13:25.653Z,12.93
2018-11-21T11:16:16.821Z,12.57
2018-11-21T11:19:03.828Z,12.43
2018-11-21T11:21:52.124Z,14.20
2018-11-21T11:24:49.181Z,13.50
2018-11-21T11:27:29.962Z,14.07
2018-11-21T11:30:33.168Z,13.37
2018-11-21T11:33:30.555Z,14.50
2018-11-21T11:36:21.348Z,13.20
2018-11-21T11:39:08.488Z,13.53
2018-11-21T11:41:57.913Z,15.07
2018-11-21T11:44:44.888Z,14.67
2018-11-21T11:47:33.166Z,13.40
2018-11-21T11:50:20.258Z,13.20
2018-11-21T11:52:57.719Z,12.57
2018-11-21T11:55:54.954Z,13.43
2018-11-21T11:58:41.759Z,13.87
2018-11-21T12:01:28.717Z,14.07
2018-11-21T12:04:15.896Z,13.60
2018-11-21T12:07:04.222Z,14.00
2018-11-21T12:09:50.961Z,15.00
2018-11-21T12:12:40.114Z,14.20
2018-11-21T12:15:41.722Z,14.00
2018-11-21T12:18:28.689Z,13.77
2018-11-21T12:21:19.459Z,14.30
2018-11-21T12:24:18.588Z,14.67
2018-11-21T12:27:15.891Z,14.07
2018-11-21T12:30:03.349Z,14.33
2018-11-21T12:32:50.502Z,14.03
2018-11-21T12:35:44.820Z,14.00
2018-11-21T12:38:35.818Z,13.60
2018-11-21T12:41:22.920Z,14.57
2018-11-21T12:44:26.419Z,14.03
2018-11-21T12:47:13.901Z,14.27
2018-11-21T12:50:00.993Z,14.37
2018-11-21T12:52:49.283Z,13.13
2018-11-21T12:55:25.554Z,13.70
2018-11-21T12:58:25.698Z,13.53
2018-11-21T13:01:19.673Z,13.43
2018-11-21T13:04:06.805Z,12.73
2018-11-21T13:06:53.926Z,13.97
2018-11-21T13:09:42.197Z,13.97
2018-11-21T13:12:29.285Z,13.27
2018-11-21T13:15:16.206Z,14.57
2018-11-21T13:18:14.065Z,14.27
2018-11-21T13:21:02.341Z,14.40
2018-11-21T13:23:59.309Z,13.53
2018-11-21T13:26:44.334Z,13.10
2018-11-21T13:29:26.273Z,12.90
2018-11-21T13:32:14.548Z,14.67
2018-11-21T13:34:52.908Z,14.13
2018-11-21T13:37:39.775Z,14.50
